Time;durP1;ratioP1;P1;durP2;ratioP2;P2;SDS_P1;SDS_P2;PMS_P1;PMS_P2;Temp;Humidity;BMP_temperature;BMP_pressure;BME280_temperature;BME280_humidity;BME280_pressure;Samples;Min_cycle;Max_cycle;Signal;HPM_P1;HPM_P2
2023/10/30 00:01:50;;;;;;;5.97;1.85;;;;;;;;;;5078379;28;20040;-69
2023/10/30 00:04:16;;;;;;;4.32;1.27;;;;;;;;;;5080344;28;20039;-69
2023/10/30 00:06:42;;;;;;;4.78;1.35;;;;;;;;;;5079587;28;20036;-69
2023/10/30 00:09:08;;;;;;;7.07;1.48;;;;;;;;;;5092095;28;20032;-69
2023/10/30 00:11:34;;;;;;;6.97;1.45;;;;;;;;;;5091684;28;20461;-69
2023/10/30 00:14:00;;;;;;;5.47;1.30;;;;;;;;;;5092121;28;20126;-69
2023/10/30 00:16:27;;;;;;;5.57;1.52;;;;;;;;;;5074848;28;20040;-69
2023/10/30 00:18:54;;;;;;;5.80;1.58;;;;;;;;;;5077210;28;20040;-69
2023/10/30 00:21:20;;;;;;;5.00;1.40;;;;;;;;;;5073563;28;20040;-69
2023/10/30 00:23:46;;;;;;;3.63;1.27;;;;;;;;;;5081696;28;20048;-69
2023/10/30 00:26:12;;;;;;;4.50;1.48;;;;;;;;;;5073768;28;20040;-69
2023/10/30 00:28:38;;;;;;;3.50;1.40;;;;;;;;;;5082026;28;20481;-69
2023/10/30 00:31:05;;;;;;;5.30;1.67;;;;;;;;;;5087536;28;20032;-69
2023/10/30 00:33:31;;;;;;;3.90;1.75;;;;;;;;;;5074674;28;20806;-69
2023/10/30 00:35:56;;;;;;;4.82;1.50;;;;;;;;;;5074537;28;20128;-69
2023/10/30 00:38:22;;;;;;;6.32;1.60;;;;;;;;;;5085164;28;20032;-69
2023/10/30 00:40:48;;;;;;;5.85;1.60;;;;;;;;;;5090292;28;20119;-69
2023/10/30 00:43:14;;;;;;;7.03;1.85;;;;;;;;;;5091849;28;20084;-69
2023/10/30 00:45:40;;;;;;;6.75;1.92;;;;;;;;;;5088167;28;20044;-69
2023/10/30 00:48:06;;;;;;;4.72;1.27;;;;;;;;;;5086844;28;20032;-69
2023/10/30 00:50:32;;;;;;;2.60;1.17;;;;;;;;;;5080696;28;20036;-69
2023/10/30 00:52:59;;;;;;;4.32;1.92;;;;;;;;;;5089188;28;20541;-69
2023/10/30 00:55:25;;;;;;;4.80;1.42;;;;;;;;;;5086755;28;20071;-69
2023/10/30 00:57:50;;;;;;;7.88;1.75;;;;;;;;;;5088091;28;20068;-69
2023/10/30 01:00:17;;;;;;;6.78;1.38;;;;;;;;;;5093598;28;20048;-69
2023/10/30 01:02:44;;;;;;;5.45;1.25;;;;;;;;;;5095709;28;20044;-69
2023/10/30 01:05:10;;;;;;;6.68;1.55;;;;;;;;;;5078797;28;20044;-69
2023/10/30 01:07:37;;;;;;;4.65;1.35;;;;;;;;;;5084532;28;20044;-69
2023/10/30 01:10:03;;;;;;;4.82;1.40;;;;;;;;;;5084495;28;20044;-69
2023/10/30 01:12:29;;;;;;;6.45;1.70;;;;;;;;;;5093680;28;20370;-69
2023/10/30 01:14:55;;;;;;;8.02;2.00;;;;;;;;;;5087448;28;20047;-69
2023/10/30 01:17:21;;;;;;;4.80;1.50;;;;;;;;;;5088794;28;20050;-69
2023/10/30 01:19:47;;;;;;;5.28;2.00;;;;;;;;;;5090510;28;20044;-69
2023/10/30 01:22:13;;;;;;;6.72;1.52;;;;;;;;;;5076519;28;20449;-69
2023/10/30 01:24:39;;;;;;;6.22;1.67;;;;;;;;;;5085454;28;20387;-69
2023/10/30 01:27:06;;;;;;;7.50;1.67;;;;;;;;;;5079696;28;20059;-69
2023/10/30 01:29:32;;;;;;;5.38;1.70;;;;;;;;;;5086771;28;20040;-69
2023/10/30 01:31:58;;;;;;;8.20;1.60;;;;;;;;;;5081562;28;20405;-69
2023/10/30 01:34:24;;;;;;;5.88;1.70;;;;;;;;;;5080106;28;20032;-69
2023/10/30 01:36:50;;;;;;;5.47;1.88;;;;;;;;;;5080394;28;20558;-69
2023/10/30 01:39:16;;;;;;;9.77;2.00;;;;;;;;;;5081477;28;20031;-69
2023/10/30 01:41:42;;;;;;;4.00;1.42;;;;;;;;;;5079909;28;20040;-69
2023/10/30 01:44:08;;;;;;;5.50;1.55;;;;;;;;;;5081796;28;20062;-69
2023/10/30 01:46:34;;;;;;;6.20;1.67;;;;;;;;;;5081208;28;20091;-69
2023/10/30 01:49:00;;;;;;;12.73;2.17;;;;;;;;;;5079903;28;20036;-69
2023/10/30 01:51:26;;;;;;;7.78;1.90;;;;;;;;;;5080018;28;20037;-69
2023/10/30 01:53:52;;;;;;;6.43;2.00;;;;;;;;;;5084225;28;20101;-69
2023/10/30 01:56:19;;;;;;;7.22;1.98;;;;;;;;;;5079862;28;20051;-69
2023/10/30 01:58:45;;;;;;;6.18;1.80;;;;;;;;;;5084371;28;20032;-69
2023/10/30 02:01:11;;;;;;;11.05;2.03;;;;;;;;;;5090963;28;20040;-69
2023/10/30 02:03:37;;;;;;;7.05;1.92;;;;;;;;;;5085497;28;20036;-69
2023/10/30 02:06:03;;;;;;;10.95;2.33;;;;;;;;;;5093166;28;20059;-69
2023/10/30 02:08:29;;;;;;;7.50;2.20;;;;;;;;;;5083328;28;20086;-69
2023/10/30 02:10:56;;;;;;;8.68;1.92;;;;;;;;;;5075890;28;20040;-69
2023/10/30 02:13:21;;;;;;;5.43;1.65;;;;;;;;;;5093610;28;20535;-69
2023/10/30 02:15:47;;;;;;;6.90;1.88;;;;;;;;;;5092649;28;20044;-69
2023/10/30 02:18:13;;;;;;;4.43;1.65;;;;;;;;;;5083700;28;20036;-69
2023/10/30 02:20:40;;;;;;;9.63;2.05;;;;;;;;;;5091923;28;20048;-69
2023/10/30 02:23:06;;;;;;;8.13;1.77;;;;;;;;;;5094146;28;20079;-69
2023/10/30 02:25:32;;;;;;;11.63;1.90;;;;;;;;;;5077541;28;20083;-69
2023/10/30 02:27:59;;;;;;;6.70;1.85;;;;;;;;;;5079669;28;20115;-69
2023/10/30 02:30:28;;;;;;;11.60;1.88;;;;;;;;;;5092182;28;20118;-69
2023/10/30 02:32:54;;;;;;;10.07;2.00;;;;;;;;;;5089456;28;20075;-69
2023/10/30 02:35:20;;;;;;;7.95;2.15;;;;;;;;;;5083109;28;20044;-69
2023/10/30 02:37:46;;;;;;;14.18;2.20;;;;;;;;;;5084593;28;20091;-69
2023/10/30 02:40:13;;;;;;;11.00;2.45;;;;;;;;;;5090322;28;20040;-69
2023/10/30 02:42:39;;;;;;;8.55;1.83;;;;;;;;;;5090474;28;20478;-69
2023/10/30 02:45:06;;;;;;;8.05;1.75;;;;;;;;;;5087279;28;20500;-69
2023/10/30 02:47:32;;;;;;;7.57;2.22;;;;;;;;;;5092178;28;20042;-69
2023/10/30 02:49:58;;;;;;;8.13;1.95;;;;;;;;;;5093530;28;20042;-69
2023/10/30 02:52:25;;;;;;;12.10;2.13;;;;;;;;;;5079491;28;20024;-69
2023/10/30 02:54:51;;;;;;;7.07;1.85;;;;;;;;;;5088237;28;20134;-69
2023/10/30 02:57:17;;;;;;;10.82;2.08;;;;;;;;;;5091512;28;20442;-69
2023/10/30 02:59:43;;;;;;;10.20;2.08;;;;;;;;;;5089106;28;20043;-69
2023/10/30 03:02:09;;;;;;;9.65;2.28;;;;;;;;;;5083312;28;20036;-69
2023/10/30 03:04:35;;;;;;;6.90;1.98;;;;;;;;;;5079999;28;20032;-69
2023/10/30 03:07:01;;;;;;;9.40;1.88;;;;;;;;;;5075013;28;20032;-69
2023/10/30 03:09:27;;;;;;;10.18;2.05;;;;;;;;;;5077327;28;20039;-69
2023/10/30 03:11:53;;;;;;;9.60;1.70;;;;;;;;;;5091998;28;20036;-69
2023/10/30 03:14:19;;;;;;;13.25;2.08;;;;;;;;;;5090910;28;20039;-69
2023/10/30 03:16:45;;;;;;;11.65;1.83;;;;;;;;;;5087667;28;20037;-69
2023/10/30 03:19:11;;;;;;;10.55;2.30;;;;;;;;;;5084343;28;20168;-69
2023/10/30 03:21:37;;;;;;;7.85;2.38;;;;;;;;;;5079160;28;20167;-69
2023/10/30 03:24:03;;;;;;;8.52;2.10;;;;;;;;;;5088184;28;20043;-69
2023/10/30 03:26:29;;;;;;;5.60;1.70;;;;;;;;;;5085296;28;20185;-69
2023/10/30 03:28:56;;;;;;;6.80;1.90;;;;;;;;;;5092807;28;20486;-69
2023/10/30 03:31:22;;;;;;;9.90;2.08;;;;;;;;;;5091795;28;20035;-69
2023/10/30 03:33:48;;;;;;;8.93;1.95;;;;;;;;;;5077545;28;20040;-69
2023/10/30 03:36:20;;;;;;;8.43;1.92;;;;;;;;;;5090403;28;20043;-69
2023/10/30 03:38:46;;;;;;;11.27;2.00;;;;;;;;;;5091392;28;20109;-69
2023/10/30 03:41:12;;;;;;;7.00;2.00;;;;;;;;;;5089054;28;20040;-69
2023/10/30 03:43:38;;;;;;;10.95;1.80;;;;;;;;;;5078368;28;20449;-69
2023/10/30 03:46:04;;;;;;;9.15;1.52;;;;;;;;;;5086305;28;20040;-69
2023/10/30 03:48:30;;;;;;;9.40;2.25;;;;;;;;;;5075991;28;20378;-69
2023/10/30 03:50:57;;;;;;;13.43;2.03;;;;;;;;;;5087454;28;20044;-69
2023/10/30 03:53:23;;;;;;;10.88;1.90;;;;;;;;;;5091325;28;20036;-69
2023/10/30 03:55:49;;;;;;;12.50;2.17;;;;;;;;;;5079273;28;20512;-69
2023/10/30 03:58:15;;;;;;;8.15;1.70;;;;;;;;;;5084520;28;20036;-69
2023/10/30 04:00:41;;;;;;;11.07;1.90;;;;;;;;;;5086523;22;20097;-72
2023/10/30 04:03:07;;;;;;;5.85;1.88;;;;;;;;;;5063971;28;20040;-73
2023/10/30 04:05:33;;;;;;;7.18;1.55;;;;;;;;;;5072049;28;20051;-73
2023/10/30 04:07:59;;;;;;;7.10;1.80;;;;;;;;;;5071978;28;20040;-73
2023/10/30 04:10:25;;;;;;;11.93;1.90;;;;;;;;;;5071645;28;20037;-73
2023/10/30 04:12:51;;;;;;;10.88;2.10;;;;;;;;;;5069031;28;20036;-73
2023/10/30 04:15:18;;;;;;;8.38;1.63;;;;;;;;;;5069411;28;20036;-73
2023/10/30 04:17:44;;;;;;;11.88;3.38;;;;;;;;;;5056771;28;20498;-73
2023/10/30 04:20:10;;;;;;;6.72;1.70;;;;;;;;;;5071148;28;20525;-73
2023/10/30 04:22:36;;;;;;;13.77;2.47;;;;;;;;;;5063915;28;20070;-73
2023/10/30 04:25:03;;;;;;;11.13;2.00;;;;;;;;;;5063531;28;20051;-73
2023/10/30 04:27:29;;;;;;;9.32;2.00;;;;;;;;;;5067841;28;20387;-73
2023/10/30 04:29:55;;;;;;;10.80;2.00;;;;;;;;;;5071290;28;20036;-73
2023/10/30 04:32:21;;;;;;;11.75;2.10;;;;;;;;;;5062887;28;20127;-73
2023/10/30 04:34:47;;;;;;;10.07;1.98;;;;;;;;;;5061842;28;20119;-73
2023/10/30 04:37:13;;;;;;;12.88;2.25;;;;;;;;;;5061422;28;20572;-73
2023/10/30 04:39:40;;;;;;;5.70;1.60;;;;;;;;;;5061468;28;20470;-73
2023/10/30 04:42:06;;;;;;;9.20;2.10;;;;;;;;;;5066774;28;20575;-73
2023/10/30 04:44:32;;;;;;;7.65;2.08;;;;;;;;;;5071074;28;20036;-73
2023/10/30 04:46:58;;;;;;;11.15;2.20;;;;;;;;;;5070915;28;20131;-73
2023/10/30 04:49:24;;;;;;;9.55;2.40;;;;;;;;;;5070525;28;20058;-73
2023/10/30 04:51:50;;;;;;;11.32;2.47;;;;;;;;;;5065665;28;20061;-73
2023/10/30 04:54:16;;;;;;;7.18;1.85;;;;;;;;;;5065499;28;20040;-73
2023/10/30 04:56:42;;;;;;;11.13;1.90;;;;;;;;;;5070709;28;20044;-73
2023/10/30 04:59:08;;;;;;;10.70;1.90;;;;;;;;;;5071075;28;20628;-73
2023/10/30 05:01:34;;;;;;;6.55;1.77;;;;;;;;;;5066166;28;20044;-73
2023/10/30 05:04:01;;;;;;;8.60;2.00;;;;;;;;;;5057494;28;20036;-73
2023/10/30 05:06:27;;;;;;;11.90;2.35;;;;;;;;;;5055549;28;20068;-73
2023/10/30 05:08:53;;;;;;;8.52;2.00;;;;;;;;;;5064246;28;20435;-73
2023/10/30 05:11:19;;;;;;;9.18;1.90;;;;;;;;;;5068081;28;20033;-73
2023/10/30 05:13:45;;;;;;;9.10;1.98;;;;;;;;;;5066690;28;20123;-73
2023/10/30 05:16:11;;;;;;;9.70;2.05;;;;;;;;;;5059628;28;20037;-73
2023/10/30 05:18:37;;;;;;;9.35;1.80;;;;;;;;;;5069694;28;20036;-73
2023/10/30 05:21:03;;;;;;;13.75;2.13;;;;;;;;;;5055235;28;20045;-73
2023/10/30 05:23:29;;;;;;;9.30;2.28;;;;;;;;;;5066357;28;20033;-73
2023/10/30 05:25:55;;;;;;;16.20;2.45;;;;;;;;;;5060553;28;20048;-73
2023/10/30 05:28:21;;;;;;;9.25;3.05;;;;;;;;;;5070175;28;20062;-73
2023/10/30 05:30:48;;;;;;;9.07;1.85;;;;;;;;;;5065125;28;20046;-73
2023/10/30 05:33:14;;;;;;;14.38;2.47;;;;;;;;;;5070215;28;20043;-73
2023/10/30 05:35:40;;;;;;;11.75;2.03;;;;;;;;;;5073069;28;20043;-73
2023/10/30 05:38:06;;;;;;;13.20;2.20;;;;;;;;;;5073609;28;20045;-73
2023/10/30 05:40:32;;;;;;;14.40;2.47;;;;;;;;;;5067092;28;20048;-73
2023/10/30 05:42:58;;;;;;;8.80;2.30;;;;;;;;;;5068456;28;20094;-73
2023/10/30 05:45:24;;;;;;;15.43;2.60;;;;;;;;;;5069515;28;20040;-73
2023/10/30 05:47:50;;;;;;;8.48;1.90;;;;;;;;;;5073205;28;20120;-73
2023/10/30 05:50:16;;;;;;;9.27;1.98;;;;;;;;;;5071825;28;20086;-73
2023/10/30 05:52:42;;;;;;;14.15;2.15;;;;;;;;;;5069281;28;20068;-73
2023/10/30 05:55:08;;;;;;;6.63;2.08;;;;;;;;;;5067893;28;20036;-73
2023/10/30 05:57:35;;;;;;;7.30;2.13;;;;;;;;;;5072150;28;20484;-73
2023/10/30 06:00:01;;;;;;;9.50;2.38;;;;;;;;;;5065132;28;20124;-73
2023/10/30 06:02:27;;;;;;;12.68;2.53;;;;;;;;;;5063517;28;20123;-73
2023/10/30 06:04:53;;;;;;;8.68;1.85;;;;;;;;;;5069269;28;20435;-73
2023/10/30 06:07:19;;;;;;;12.35;2.55;;;;;;;;;;5066747;28;20093;-73
2023/10/30 06:09:45;;;;;;;11.05;2.97;;;;;;;;;;5073923;28;20352;-73
2023/10/30 06:12:11;;;;;;;10.00;2.30;;;;;;;;;;5069087;28;20513;-73
2023/10/30 06:14:37;;;;;;;12.05;2.38;;;;;;;;;;5070323;28;20178;-73
2023/10/30 06:17:03;;;;;;;6.97;2.30;;;;;;;;;;5062490;28;20099;-73
2023/10/30 06:19:29;;;;;;;9.90;2.00;;;;;;;;;;5060451;28;20475;-73
2023/10/30 06:21:55;;;;;;;8.50;1.77;;;;;;;;;;5072361;28;20047;-73
2023/10/30 06:24:21;;;;;;;8.40;1.77;;;;;;;;;;5067610;28;20032;-73
2023/10/30 06:26:47;;;;;;;12.15;2.40;;;;;;;;;;5065246;28;20040;-72
2023/10/30 06:29:13;;;;;;;7.07;1.80;;;;;;;;;;5064537;28;20037;-73
2023/10/30 06:31:39;;;;;;;7.25;1.90;;;;;;;;;;5073534;28;20387;-73
2023/10/30 06:34:05;;;;;;;9.75;2.03;;;;;;;;;;5060419;28;20033;-72
2023/10/30 06:36:31;;;;;;;15.38;2.55;;;;;;;;;;5069810;28;20041;-73
2023/10/30 06:38:57;;;;;;;9.52;2.38;;;;;;;;;;5066125;28;20033;-73
2023/10/30 06:41:24;;;;;;;6.85;1.90;;;;;;;;;;5065452;28;20042;-73
2023/10/30 06:43:51;;;;;;;8.27;2.33;;;;;;;;;;5067435;28;20094;-73
2023/10/30 06:46:17;;;;;;;7.75;1.77;;;;;;;;;;5070934;28;20092;-73
2023/10/30 06:48:43;;;;;;;9.68;1.90;;;;;;;;;;5063254;28;20112;-73
2023/10/30 06:51:09;;;;;;;11.73;2.28;;;;;;;;;;5063020;28;20037;-73
2023/10/30 06:53:35;;;;;;;9.48;2.42;;;;;;;;;;5053277;28;20044;-73
2023/10/30 06:56:01;;;;;;;9.57;1.77;;;;;;;;;;5060864;28;20036;-73
2023/10/30 06:58:27;;;;;;;11.23;2.30;;;;;;;;;;5066016;28;20371;-73
2023/10/30 07:01:02;;;;;;;9.02;2.03;;;;;;;;;;5058427;28;20187;-73
2023/10/30 07:03:28;;;;;;;12.10;2.15;;;;;;;;;;5056057;28;20041;-73
2023/10/30 07:05:54;;;;;;;14.18;2.55;;;;;;;;;;5057991;28;20399;-73
2023/10/30 07:08:20;;;;;;;7.43;1.83;;;;;;;;;;5051142;28;20131;-73
2023/10/30 07:10:46;;;;;;;10.82;2.53;;;;;;;;;;5056516;28;20482;-73
2023/10/30 07:13:12;;;;;;;8.13;2.47;;;;;;;;;;5059679;28;20059;-72
2023/10/30 07:15:38;;;;;;;9.07;2.20;;;;;;;;;;5060846;28;20115;-73
2023/10/30 07:18:04;;;;;;;8.82;1.88;;;;;;;;;;5059617;28;20121;-73
2023/10/30 07:20:29;;;;;;;11.85;2.15;;;;;;;;;;5055582;28;20049;-72
2023/10/30 07:22:56;;;;;;;8.88;2.03;;;;;;;;;;5057953;28;20776;-72
2023/10/30 07:25:22;;;;;;;9.40;2.03;;;;;;;;;;5053464;28;20041;-72
2023/10/30 07:27:48;;;;;;;8.70;2.28;;;;;;;;;;5054764;28;20064;-72
2023/10/30 07:30:14;;;;;;;9.77;2.20;;;;;;;;;;5060017;28;20040;-72
2023/10/30 07:32:40;;;;;;;11.02;2.33;;;;;;;;;;5058215;28;20124;-72
2023/10/30 07:35:07;;;;;;;10.45;2.47;;;;;;;;;;5056399;28;20036;-72
2023/10/30 07:37:36;;;;;;;9.73;2.10;;;;;;;;;;5064844;28;20083;-72
2023/10/30 07:40:05;;;;;;;9.23;2.20;;;;;;;;;;5062878;28;20090;-72
2023/10/30 07:42:31;;;;;;;11.18;1.77;;;;;;;;;;5062207;28;20090;-72
2023/10/30 07:44:57;;;;;;;13.32;2.30;;;;;;;;;;5059869;28;20044;-72
2023/10/30 07:47:23;;;;;;;10.18;2.45;;;;;;;;;;5063278;28;20119;-72
2023/10/30 07:49:49;;;;;;;11.82;3.10;;;;;;;;;;5065427;28;20043;-72
2023/10/30 07:52:15;;;;;;;9.43;2.13;;;;;;;;;;5071129;28;20082;-72
2023/10/30 07:54:41;;;;;;;9.07;1.90;;;;;;;;;;5068448;28;20037;-72
2023/10/30 07:57:09;;;;;;;9.10;2.10;;;;;;;;;;5059888;28;20044;-72
2023/10/30 07:59:35;;;;;;;7.43;2.10;;;;;;;;;;5059567;28;20048;-72
2023/10/30 08:02:03;;;;;;;8.93;2.28;;;;;;;;;;5060762;28;20117;-72
2023/10/30 08:04:29;;;;;;;11.00;2.92;;;;;;;;;;5055120;28;20048;-72
2023/10/30 08:06:55;;;;;;;7.25;1.92;;;;;;;;;;5055195;28;20067;-73
2023/10/30 08:09:21;;;;;;;9.40;2.20;;;;;;;;;;5061063;28;20040;-73
2023/10/30 08:11:47;;;;;;;9.48;2.13;;;;;;;;;;5062752;28;20037;-73
2023/10/30 08:14:13;;;;;;;7.20;2.13;;;;;;;;;;5061204;28;20051;-73
2023/10/30 08:16:39;;;;;;;10.10;2.38;;;;;;;;;;5060617;28;20032;-71
2023/10/30 08:19:05;;;;;;;12.57;2.20;;;;;;;;;;5067000;28;20047;-71
2023/10/30 08:21:31;;;;;;;11.32;2.50;;;;;;;;;;5061639;28;20044;-71
2023/10/30 08:23:57;;;;;;;11.40;2.30;;;;;;;;;;5067702;28;20036;-71
2023/10/30 08:26:25;;;;;;;10.40;2.17;;;;;;;;;;5059822;28;20048;-71
2023/10/30 08:28:51;;;;;;;7.88;2.22;;;;;;;;;;5064995;28;20076;-71
2023/10/30 08:31:17;;;;;;;8.30;2.33;;;;;;;;;;5064533;28;20053;-71
2023/10/30 08:33:43;;;;;;;9.02;2.40;;;;;;;;;;5062012;28;20043;-70
2023/10/30 08:36:09;;;;;;;7.95;2.20;;;;;;;;;;5056191;28;20028;-70
2023/10/30 08:38:38;;;;;;;12.82;2.45;;;;;;;;;;5057802;28;20402;-70
2023/10/30 08:41:04;;;;;;;9.32;2.03;;;;;;;;;;5057799;28;20047;-72
2023/10/30 08:43:30;;;;;;;11.57;1.95;;;;;;;;;;5059753;28;20076;-72
2023/10/30 08:45:56;;;;;;;10.25;2.53;;;;;;;;;;5063149;28;20451;-72
2023/10/30 08:48:22;;;;;;;10.25;2.17;;;;;;;;;;5058260;28;20060;-72
2023/10/30 08:50:49;;;;;;;12.07;2.17;;;;;;;;;;5062963;28;20068;-72
2023/10/30 08:53:15;;;;;;;7.03;1.83;;;;;;;;;;5062300;28;20045;-72
2023/10/30 08:55:41;;;;;;;9.93;2.17;;;;;;;;;;5057421;28;20557;-73
2023/10/30 08:58:07;;;;;;;7.97;2.03;;;;;;;;;;5055833;28;20067;-72
2023/10/30 09:00:33;;;;;;;10.98;1.98;;;;;;;;;;5060583;28;20048;-72
2023/10/30 09:02:59;;;;;;;11.15;2.22;;;;;;;;;;5058642;28;20079;-72
2023/10/30 09:05:25;;;;;;;12.35;2.38;;;;;;;;;;5056150;28;20073;-72
2023/10/30 09:07:52;;;;;;;7.70;1.77;;;;;;;;;;5058689;28;20300;-73
2023/10/30 09:10:18;;;;;;;10.57;2.03;;;;;;;;;;5068318;28;20051;-73
2023/10/30 09:12:45;;;;;;;10.23;2.15;;;;;;;;;;5066621;28;20029;-72
2023/10/30 09:15:13;;;;;;;10.98;2.20;;;;;;;;;;5062317;28;20115;-72
2023/10/30 09:17:39;;;;;;;7.95;2.00;;;;;;;;;;5065431;28;20044;-72
2023/10/30 09:20:05;;;;;;;11.05;1.80;;;;;;;;;;5068901;28;20037;-72
2023/10/30 09:22:33;;;;;;;16.25;2.50;;;;;;;;;;5074276;28;20468;-72
2023/10/30 09:24:59;;;;;;;8.23;1.73;;;;;;;;;;5072181;28;20065;-72
2023/10/30 09:27:25;;;;;;;13.73;2.38;;;;;;;;;;5063110;28;20170;-72
2023/10/30 09:29:51;;;;;;;11.10;1.88;;;;;;;;;;5071305;28;20119;-72
2023/10/30 09:32:18;;;;;;;9.45;2.00;;;;;;;;;;5061608;28;20482;-72
2023/10/30 09:34:44;;;;;;;7.85;2.10;;;;;;;;;;5068618;28;20077;-72
2023/10/30 09:37:11;;;;;;;7.82;2.15;;;;;;;;;;5073920;28;20028;-72
2023/10/30 09:39:37;;;;;;;12.60;1.92;;;;;;;;;;5066092;28;20490;-72
2023/10/30 09:42:03;;;;;;;12.52;2.05;;;;;;;;;;5072507;28;20040;-72
2023/10/30 09:44:30;;;;;;;12.13;2.20;;;;;;;;;;5060224;28;20124;-72
2023/10/30 09:46:56;;;;;;;8.48;2.00;;;;;;;;;;5069026;28;20076;-71
2023/10/30 09:49:23;;;;;;;9.52;2.20;;;;;;;;;;5060914;28;20029;-72
2023/10/30 09:51:50;;;;;;;10.77;2.45;;;;;;;;;;5062262;28;20410;-72
2023/10/30 09:54:17;;;;;;;9.82;2.22;;;;;;;;;;5065665;28;20055;-72
2023/10/30 09:56:44;;;;;;;7.72;2.03;;;;;;;;;;5060684;28;20044;-72
2023/10/30 09:59:13;;;;;;;12.00;2.15;;;;;;;;;;5064365;28;20033;-72
2023/10/30 10:01:39;;;;;;;6.82;1.70;;;;;;;;;;5096913;22;20537;-68
2023/10/30 10:04:05;;;;;;;8.45;2.30;;;;;;;;;;5089591;28;20123;-68
2023/10/30 10:06:31;;;;;;;9.13;2.13;;;;;;;;;;5086288;28;20465;-69
2023/10/30 10:08:58;;;;;;;14.75;2.30;;;;;;;;;;5084423;28;20081;-69
2023/10/30 10:11:31;;;;;;;9.75;2.10;;;;;;;;;;5087848;28;20032;-69
2023/10/30 10:13:57;;;;;;;10.57;2.53;;;;;;;;;;5080184;28;20040;-69
2023/10/30 10:16:28;;;;;;;11.80;2.58;;;;;;;;;;5090522;28;20127;-69
2023/10/30 10:18:55;;;;;;;10.15;2.30;;;;;;;;;;5081380;28;20479;-69
2023/10/30 10:21:22;;;;;;;10.93;2.03;;;;;;;;;;5079938;28;20043;-69
2023/10/30 10:23:48;;;;;;;9.20;2.28;;;;;;;;;;5079794;28;21200;-69
2023/10/30 10:26:15;;;;;;;12.20;2.50;;;;;;;;;;5087409;28;20076;-69
2023/10/30 10:28:42;;;;;;;8.10;2.10;;;;;;;;;;5075975;28;20032;-69
2023/10/30 10:31:08;;;;;;;11.73;2.45;;;;;;;;;;5083860;28;20044;-69
2023/10/30 10:33:35;;;;;;;5.93;1.52;;;;;;;;;;5079968;28;20040;-69
2023/10/30 10:36:03;;;;;;;7.20;2.25;;;;;;;;;;5084946;28;20040;-69
2023/10/30 10:38:30;;;;;;;10.32;2.53;;;;;;;;;;5081743;28;20039;-69
2023/10/30 10:40:56;;;;;;;8.90;2.28;;;;;;;;;;5077673;28;20063;-69
2023/10/30 10:43:24;;;;;;;14.63;2.40;;;;;;;;;;5075723;28;20161;-69
2023/10/30 10:45:51;;;;;;;11.55;2.00;;;;;;;;;;5081719;28;20383;-69
2023/10/30 10:48:18;;;;;;;11.05;2.15;;;;;;;;;;5081222;28;20035;-69
2023/10/30 10:50:44;;;;;;;10.15;1.90;;;;;;;;;;5075437;28;20032;-69
2023/10/30 10:53:11;;;;;;;12.23;2.15;;;;;;;;;;5083751;28;20040;-68
2023/10/30 10:55:47;;;;;;;11.50;2.25;;;;;;;;;;5081645;28;20514;-68
2023/10/30 10:58:28;;;;;;;10.35;2.13;;;;;;;;;;5078624;28;20048;-68
2023/10/30 11:00:54;;;;;;;10.60;2.30;;;;;;;;;;5078241;28;20043;-68
2023/10/30 11:03:21;;;;;;;11.43;2.05;;;;;;;;;;5078150;28;20048;-68
2023/10/30 11:05:51;;;;;;;8.70;1.90;;;;;;;;;;5075715;28;20036;-68
2023/10/30 11:08:22;;;;;;;12.90;2.60;;;;;;;;;;5084767;28;20032;-68
2023/10/30 11:10:51;;;;;;;8.38;2.20;;;;;;;;;;5081960;28;20505;-68
2023/10/30 11:13:24;;;;;;;8.20;1.90;;;;;;;;;;5084568;28;20036;-68
2023/10/30 11:15:57;;;;;;;10.23;2.30;;;;;;;;;;5082163;28;20040;-68
2023/10/30 11:18:24;;;;;;;13.63;2.38;;;;;;;;;;5089800;28;20061;-68
2023/10/30 11:20:54;;;;;;;8.82;2.03;;;;;;;;;;5091251;28;20047;-68
2023/10/30 11:23:41;;;;;;;8.57;2.30;;;;;;;;;;5086233;28;20039;-68
2023/10/30 11:26:07;;;;;;;13.27;2.40;;;;;;;;;;5064901;28;20128;-68
2023/10/30 11:28:36;;;;;;;11.07;1.92;;;;;;;;;;5088844;28;20048;-68
2023/10/30 11:31:07;;;;;;;13.93;2.42;;;;;;;;;;5078854;28;20452;-68
2023/10/30 11:33:33;;;;;;;9.68;2.38;;;;;;;;;;5077794;28;20032;-69
2023/10/30 11:36:20;;;;;;;8.55;2.30;;;;;;;;;;5084061;28;20040;-69
2023/10/30 11:38:48;;;;;;;9.45;2.10;;;;;;;;;;5079048;28;20185;-68
2023/10/30 11:41:15;;;;;;;10.02;2.03;;;;;;;;;;5080824;28;20071;-68
2023/10/30 11:43:42;;;;;;;9.23;1.80;;;;;;;;;;5082600;28;20040;-68
2023/10/30 11:46:08;;;;;;;11.63;1.95;;;;;;;;;;5089058;28;20119;-69
2023/10/30 11:48:37;;;;;;;9.38;1.90;;;;;;;;;;5085775;28;20036;-68
2023/10/30 11:51:03;;;;;;;12.48;2.00;;;;;;;;;;5087579;28;20086;-68
2023/10/30 11:53:29;;;;;;;7.68;1.80;;;;;;;;;;5091447;28;20028;-68
2023/10/30 11:55:55;;;;;;;7.53;2.15;;;;;;;;;;5082345;28;20556;-68
2023/10/30 11:58:21;;;;;;;8.38;1.77;;;;;;;;;;5071909;28;20048;-68
2023/10/30 12:00:48;;;;;;;8.77;1.83;;;;;;;;;;5091922;28;20048;-68
2023/10/30 12:03:14;;;;;;;11.18;2.15;;;;;;;;;;5090640;28;20123;-68
2023/10/30 12:05:40;;;;;;;7.20;1.90;;;;;;;;;;5083444;28;20044;-68
2023/10/30 12:08:06;;;;;;;8.45;1.77;;;;;;;;;;5083344;28;20035;-68
2023/10/30 12:10:32;;;;;;;9.40;1.90;;;;;;;;;;5090693;28;20040;-68
2023/10/30 12:12:59;;;;;;;9.40;2.33;;;;;;;;;;5081887;28;20203;-68
2023/10/30 12:15:28;;;;;;;16.98;2.78;;;;;;;;;;5079842;28;20075;-68
2023/10/30 12:17:55;;;;;;;9.65;2.10;;;;;;;;;;5088720;28;20074;-68
2023/10/30 12:20:22;;;;;;;8.60;1.90;;;;;;;;;;5076731;28;20530;-68
2023/10/30 12:22:47;;;;;;;7.65;2.03;;;;;;;;;;5077665;28;20041;-68
2023/10/30 12:25:15;;;;;;;10.98;1.90;;;;;;;;;;5080906;28;20085;-68
2023/10/30 12:27:42;;;;;;;7.65;1.73;;;;;;;;;;5081551;28;20039;-68
2023/10/30 12:30:12;;;;;;;13.35;2.33;;;;;;;;;;5081043;28;20039;-68
2023/10/30 12:32:38;;;;;;;8.05;1.95;;;;;;;;;;5084474;28;20044;-68
2023/10/30 12:35:11;;;;;;;8.52;2.22;;;;;;;;;;5073820;28;20043;-68
2023/10/30 12:37:40;;;;;;;8.57;1.50;;;;;;;;;;5072146;28;20052;-68
2023/10/30 12:40:07;;;;;;;10.25;1.95;;;;;;;;;;5077067;28;20383;-69
2023/10/30 12:42:36;;;;;;;11.05;2.00;;;;;;;;;;5083099;28;20508;-69
2023/10/30 12:45:03;;;;;;;12.82;2.03;;;;;;;;;;5087617;28;20040;-69
2023/10/30 12:47:29;;;;;;;10.52;1.75;;;;;;;;;;5081976;28;20047;-69
2023/10/30 12:49:55;;;;;;;11.45;2.40;;;;;;;;;;5079886;28;20096;-68
2023/10/30 12:52:21;;;;;;;12.05;2.00;;;;;;;;;;5086030;28;20057;-68
2023/10/30 12:54:47;;;;;;;11.82;2.40;;;;;;;;;;5087429;28;20609;-68
2023/10/30 12:57:13;;;;;;;9.13;1.95;;;;;;;;;;5079559;28;20467;-68
2023/10/30 12:59:39;;;;;;;11.52;2.55;;;;;;;;;;5083843;28;20062;-68
2023/10/30 13:02:05;;;;;;;9.65;2.35;;;;;;;;;;5084176;28;20374;-68
2023/10/30 13:04:33;;;;;;;10.32;2.30;;;;;;;;;;5077870;28;20048;-68
2023/10/30 13:06:59;;;;;;;9.45;1.90;;;;;;;;;;5082220;28;20411;-68
2023/10/30 13:09:25;;;;;;;6.20;1.85;;;;;;;;;;5081453;28;20054;-68
2023/10/30 13:11:51;;;;;;;12.38;2.55;;;;;;;;;;5087648;28;20103;-68
2023/10/30 13:14:17;;;;;;;11.57;2.60;;;;;;;;;;5082964;28;20625;-68
2023/10/30 13:16:43;;;;;;;7.88;2.25;;;;;;;;;;5079871;28;20061;-68
2023/10/30 13:19:09;;;;;;;11.55;2.03;;;;;;;;;;5081229;28;20047;-66
2023/10/30 13:21:35;;;;;;;9.50;2.00;;;;;;;;;;5081458;28;20048;-67
2023/10/30 13:24:01;;;;;;;11.07;2.47;;;;;;;;;;5082655;28;20040;-67
2023/10/30 13:26:27;;;;;;;13.50;2.25;;;;;;;;;;5084285;28;20119;-67
2023/10/30 13:28:53;;;;;;;10.77;2.20;;;;;;;;;;5081603;28;20044;-67
2023/10/30 13:31:19;;;;;;;19.33;3.28;;;;;;;;;;5088841;28;20032;-67
2023/10/30 13:33:46;;;;;;;10.23;1.80;;;;;;;;;;5089419;28;20077;-67
2023/10/30 13:36:12;;;;;;;13.30;2.40;;;;;;;;;;5081812;28;20041;-67
2023/10/30 13:38:38;;;;;;;8.20;1.75;;;;;;;;;;5085824;28;20565;-67
2023/10/30 13:41:04;;;;;;;10.35;2.10;;;;;;;;;;5087276;28;20047;-67
2023/10/30 13:43:30;;;;;;;9.60;2.00;;;;;;;;;;5086114;28;20520;-67
2023/10/30 13:45:56;;;;;;;12.05;2.47;;;;;;;;;;5075499;28;20064;-67
2023/10/30 13:48:23;;;;;;;15.30;3.17;;;;;;;;;;5085387;28;20406;-67
2023/10/30 13:50:49;;;;;;;11.13;2.38;;;;;;;;;;5087011;28;20060;-67
2023/10/30 13:53:15;;;;;;;10.70;2.13;;;;;;;;;;5085221;28;20505;-67
2023/10/30 13:55:41;;;;;;;6.68;1.55;;;;;;;;;;5084996;28;20047;-67
2023/10/30 13:58:07;;;;;;;10.75;2.10;;;;;;;;;;5086668;28;20399;-67
2023/10/30 14:00:33;;;;;;;13.25;2.17;;;;;;;;;;5082055;28;20048;-67
2023/10/30 14:03:02;;;;;;;11.60;2.30;;;;;;;;;;5075268;28;20047;-67
2023/10/30 14:05:29;;;;;;;9.13;1.98;;;;;;;;;;5091156;28;20097;-67
2023/10/30 14:07:55;;;;;;;7.15;1.88;;;;;;;;;;5082591;28;20032;-67
2023/10/30 14:10:21;;;;;;;7.53;1.88;;;;;;;;;;5087405;28;20036;-67
2023/10/30 14:12:47;;;;;;;9.25;2.22;;;;;;;;;;5087449;28;20093;-67
2023/10/30 14:15:13;;;;;;;9.35;1.90;;;;;;;;;;5079043;28;20525;-67
2023/10/30 14:17:39;;;;;;;10.15;2.17;;;;;;;;;;5077821;28;20046;-67
2023/10/30 14:20:06;;;;;;;8.15;2.13;;;;;;;;;;5086338;28;20063;-66
2023/10/30 14:22:32;;;;;;;9.13;2.10;;;;;;;;;;5075602;28;20044;-66
2023/10/30 14:24:59;;;;;;;7.68;1.73;;;;;;;;;;5080840;28;20075;-67
2023/10/30 14:27:25;;;;;;;6.07;2.20;;;;;;;;;;5078982;28;20059;-67
2023/10/30 14:29:51;;;;;;;7.70;2.40;;;;;;;;;;5081962;28;20116;-67
2023/10/30 14:32:17;;;;;;;8.30;2.40;;;;;;;;;;5079092;28;20036;-67
2023/10/30 14:34:43;;;;;;;9.32;2.10;;;;;;;;;;5075936;28;20032;-67